ADDS METAR Data INFO
IDs: Format: Raw Decoded Include TAF

Data at: 2256 UTC 19 Jul 2018

METAR for:KHTS (Huntington/Ferguson, WV, US)
Text:KHTS 192251Z 05006KT 10SM CLR 30/18 A2995 RMK AO2 SLP134 T03000183
Temperature: 30.0°C ( 86°F)
Dewpoint: 18.3°C ( 65°F) [RH = 50%]
Pressure (altimeter):29.95 inches Hg (1014.3 mb) [Sea level pressure: 1013.4 mb]
Winds:from the NE (50 degrees) at 7 MPH (6 knots; 3.1 m/s)
Visibility:10 or more sm (16+ km)
Ceiling:at least 12,000 feet AGL
Clouds:sky clear below 12,000 feet AGL
Text:KHTS 192151Z VRB04KT 10SM CLR 30/17 A2997 RMK AO2 SLP142 T03000172
Temperature: 30.0°C ( 86°F)
Dewpoint: 17.2°C ( 63°F) [RH = 46%]
Pressure (altimeter):29.97 inches Hg (1015.0 mb) [Sea level pressure: 1014.2 mb]
Winds:variable direction winds at 5 MPH (4 knots; 2.1 m/s)
Visibility:10 or more sm (16+ km)
Ceiling:at least 12,000 feet AGL
Clouds:sky clear below 12,000 feet AGL
Text:KHTS 192051Z 08004KT 10SM SCT060 30/17 A2999 RMK AO2 SLP146 T03000172 56012
Temperature: 30.0°C ( 86°F)
Dewpoint: 17.2°C ( 63°F) [RH = 46%]
Pressure (altimeter):29.99 inches Hg (1015.7 mb) [Sea level pressure: 1014.6 mb]
Winds:from the E (80 degrees) at 5 MPH (4 knots; 2.1 m/s)
Visibility:10 or more sm (16+ km)
Ceiling:at least 12,000 feet AGL
Clouds: scattered clouds at 6000 feet AGL
Text:KHTS 191951Z COR VRB03KT 10SM FEW065 29/17 A2999 RMK AO2 SLP149 T02940172
Temperature: 29.4°C ( 85°F)
Dewpoint: 17.2°C ( 63°F) [RH = 48%]
Pressure (altimeter):29.99 inches Hg (1015.7 mb) [Sea level pressure: 1014.9 mb]
Winds:variable direction winds at 3 MPH (3 knots; 1.5 m/s)
Visibility:10 or more sm (16+ km)
Ceiling:at least 12,000 feet AGL
Clouds: few clouds at 6500 feet AGL
Text:KHTS 191851Z 00000KT 10SM CLR 29/15 A3001 RMK AO2 SLP154 T02890150
Temperature: 28.9°C ( 84°F)
Dewpoint: 15.0°C ( 59°F) [RH = 43%]
Pressure (altimeter):30.01 inches Hg (1016.3 mb) [Sea level pressure: 1015.4 mb]
Winds:calm
Visibility:10 or more sm (16+ km)
Ceiling:at least 12,000 feet AGL
Clouds:sky clear below 12,000 feet AGL
Text:KHTS 191751Z 09007KT 10SM CLR 29/15 A3002 RMK AO2 SLP158 T02890150 10289 20178 58011
Temperature: 28.9°C ( 84°F)
Dewpoint: 15.0°C ( 59°F) [RH = 43%]
Pressure (altimeter):30.02 inches Hg (1016.7 mb) [Sea level pressure: 1015.8 mb]
Winds:from the E (90 degrees) at 8 MPH (7 knots; 3.6 m/s)
Visibility:10 or more sm (16+ km)
Ceiling:at least 12,000 feet AGL
Clouds:sky clear below 12,000 feet AGL
Text:KHTS 191651Z 07008KT 10SM CLR 28/14 A3004 RMK AO2 SLP163 T02830144
Temperature: 28.3°C ( 83°F)
Dewpoint: 14.4°C ( 58°F) [RH = 43%]
Pressure (altimeter):30.04 inches Hg (1017.4 mb) [Sea level pressure: 1016.3 mb]
Winds:from the ENE (70 degrees) at 9 MPH (8 knots; 4.1 m/s)
Visibility:10 or more sm (16+ km)
Ceiling:at least 12,000 feet AGL
Clouds:sky clear below 12,000 feet AGL
Text:KHTS 191551Z 02005KT 10SM CLR 27/14 A3005 RMK AO2 SLP167 T02720139
Temperature: 27.2°C ( 81°F)
Dewpoint: 13.9°C ( 57°F) [RH = 44%]
Pressure (altimeter):30.05 inches Hg (1017.7 mb) [Sea level pressure: 1016.7 mb]
Winds:from the NNE (20 degrees) at 6 MPH (5 knots; 2.6 m/s)
Visibility:10 or more sm (16+ km)
Ceiling:at least 12,000 feet AGL
Clouds:sky clear below 12,000 feet AGL
Text:KHTS 191451Z 04008KT 10SM CLR 26/14 A3005 RMK AO2 SLP170 T02560139 58002
Temperature: 25.6°C ( 78°F)
Dewpoint: 13.9°C ( 57°F) [RH = 48%]
Pressure (altimeter):30.05 inches Hg (1017.7 mb) [Sea level pressure: 1017.0 mb]
Winds:from the NE (40 degrees) at 9 MPH (8 knots; 4.1 m/s)
Visibility:10 or more sm (16+ km)
Ceiling:at least 12,000 feet AGL
Clouds:sky clear below 12,000 feet AGL
Text:KHTS 191351Z 04004KT 10SM CLR 24/15 A3007 RMK AO2 SLP174 T02390150
Temperature: 23.9°C ( 75°F)
Dewpoint: 15.0°C ( 59°F) [RH = 57%]
Pressure (altimeter):30.07 inches Hg (1018.4 mb) [Sea level pressure: 1017.4 mb]
Winds:from the NE (40 degrees) at 5 MPH (4 knots; 2.1 m/s)
Visibility:10 or more sm (16+ km)
Ceiling:at least 12,000 feet AGL
Clouds:sky clear below 12,000 feet AGL
Text:KHTS 191251Z 04003KT 10SM CLR 21/16 A3006 RMK AO2 SLP173 T02060156
Temperature: 20.6°C ( 69°F)
Dewpoint: 15.6°C ( 60°F) [RH = 73%]
Pressure (altimeter):30.06 inches Hg (1018.0 mb) [Sea level pressure: 1017.3 mb]
Winds:from the NE (40 degrees) at 3 MPH (3 knots; 1.5 m/s)
Visibility:10 or more sm (16+ km)
Ceiling:at least 12,000 feet AGL
Clouds:sky clear below 12,000 feet AGL
Text:KHTS 191151Z 00000KT 10SM CLR 18/15 A3006 RMK AO2 SLP171 T01780150 10178 20150 53004
Temperature: 17.8°C ( 64°F)
Dewpoint: 15.0°C ( 59°F) [RH = 84%]
Pressure (altimeter):30.06 inches Hg (1018.0 mb) [Sea level pressure: 1017.1 mb]
Winds:calm
Visibility:10 or more sm (16+ km)
Ceiling:at least 12,000 feet AGL
Clouds:sky clear below 12,000 feet AGL
Text:KHTS 191051Z 00000KT 7SM CLR 15/14 A3005 RMK AO2 SLP170 T01500139
Temperature: 15.0°C ( 59°F)
Dewpoint: 13.9°C ( 57°F) [RH = 93%]
Pressure (altimeter):30.05 inches Hg (1017.7 mb) [Sea level pressure: 1017.0 mb]
Winds:calm
Visibility: 7 sm ( 11 km)
Ceiling:at least 12,000 feet AGL
Clouds:sky clear below 12,000 feet AGL
Text:KHTS 190951Z COR 00000KT 6SM BR CLR 15/14 A3005 RMK AO2 SLP168 T01500139
Temperature: 15.0°C ( 59°F)
Dewpoint: 13.9°C ( 57°F) [RH = 93%]
Pressure (altimeter):30.05 inches Hg (1017.7 mb) [Sea level pressure: 1016.8 mb]
Winds:calm
Visibility: 6 sm ( 10 km)
Ceiling:at least 12,000 feet AGL
Clouds:sky clear below 12,000 feet AGL
Weather:BR (mist)
Text:KHTS 190851Z 03003KT 9SM CLR 16/14 A3005 RMK AO2 SLP167 T01610144 58001
Temperature: 16.1°C ( 61°F)
Dewpoint: 14.4°C ( 58°F) [RH = 90%]
Pressure (altimeter):30.05 inches Hg (1017.7 mb) [Sea level pressure: 1016.7 mb]
Winds:from the NNE (30 degrees) at 3 MPH (3 knots; 1.5 m/s)
Visibility: 9 sm ( 14 km)
Ceiling:at least 12,000 feet AGL
Clouds:sky clear below 12,000 feet AGL
Text:KHTS 190751Z 07003KT 10SM CLR 16/14 A3005 RMK AO2 SLP167 T01610144
Temperature: 16.1°C ( 61°F)
Dewpoint: 14.4°C ( 58°F) [RH = 90%]
Pressure (altimeter):30.05 inches Hg (1017.7 mb) [Sea level pressure: 1016.7 mb]
Winds:from the ENE (70 degrees) at 3 MPH (3 knots; 1.5 m/s)
Visibility:10 or more sm (16+ km)
Ceiling:at least 12,000 feet AGL
Clouds:sky clear below 12,000 feet AGL
Text:KHTS 190651Z 11003KT 10SM CLR 16/14 A3005 RMK AO2 SLP170 T01610144
Temperature: 16.1°C ( 61°F)
Dewpoint: 14.4°C ( 58°F) [RH = 90%]
Pressure (altimeter):30.05 inches Hg (1017.7 mb) [Sea level pressure: 1017.0 mb]
Winds:from the ESE (110 degrees) at 3 MPH (3 knots; 1.5 m/s)
Visibility:10 or more sm (16+ km)
Ceiling:at least 12,000 feet AGL
Clouds:sky clear below 12,000 feet AGL
Text:KHTS 190551Z 10003KT 10SM CLR 17/14 A3005 RMK AO2 SLP168 T01670144 10267 20167 50003
Temperature: 16.7°C ( 62°F)
Dewpoint: 14.4°C ( 58°F) [RH = 86%]
Pressure (altimeter):30.05 inches Hg (1017.7 mb) [Sea level pressure: 1016.8 mb]
Winds:from the E (100 degrees) at 3 MPH (3 knots; 1.5 m/s)
Visibility:10 or more sm (16+ km)
Ceiling:at least 12,000 feet AGL
Clouds:sky clear below 12,000 feet AGL
Text:KHTS 190451Z 09003KT 10SM CLR 18/14 A3005 RMK AO2 SLP169 T01780144 402940178
Temperature: 17.8°C ( 64°F)
Dewpoint: 14.4°C ( 58°F) [RH = 80%]
Pressure (altimeter):30.05 inches Hg (1017.7 mb) [Sea level pressure: 1016.9 mb]
Winds:from the E (90 degrees) at 3 MPH (3 knots; 1.5 m/s)
Visibility:10 or more sm (16+ km)
Ceiling:at least 12,000 feet AGL
Clouds:sky clear below 12,000 feet AGL
Text:KHTS 190351Z 09003KT 10SM CLR 19/14 A3004 RMK AO2 SLP166 T01890144
Temperature: 18.9°C ( 66°F)
Dewpoint: 14.4°C ( 58°F) [RH = 75%]
Pressure (altimeter):30.04 inches Hg (1017.4 mb) [Sea level pressure: 1016.6 mb]
Winds:from the E (90 degrees) at 3 MPH (3 knots; 1.5 m/s)
Visibility:10 or more sm (16+ km)
Ceiling:at least 12,000 feet AGL
Clouds:sky clear below 12,000 feet AGL
Text:KHTS 190251Z 00000KT 8SM CLR 20/14 A3004 RMK AO2 SLP166 T02000144 53011
Temperature: 20.0°C ( 68°F)
Dewpoint: 14.4°C ( 58°F) [RH = 70%]
Pressure (altimeter):30.04 inches Hg (1017.4 mb) [Sea level pressure: 1016.6 mb]
Winds:calm
Visibility: 8 sm ( 13 km)
Ceiling:at least 12,000 feet AGL
Clouds:sky clear below 12,000 feet AGL
Text:KHTS 190151Z 00000KT 10SM CLR 22/14 A3003 RMK AO2 SLP161 T02220139
Temperature: 22.2°C ( 72°F)
Dewpoint: 13.9°C ( 57°F) [RH = 59%]
Pressure (altimeter):30.03 inches Hg (1017.0 mb) [Sea level pressure: 1016.1 mb]
Winds:calm
Visibility:10 or more sm (16+ km)
Ceiling:at least 12,000 feet AGL
Clouds:sky clear below 12,000 feet AGL
Text:KHTS 190051Z 08003KT 10SM CLR 24/12 A3001 RMK AO2 SLP155 T02440122
Temperature: 24.4°C ( 76°F)
Dewpoint: 12.2°C ( 54°F) [RH = 47%]
Pressure (altimeter):30.01 inches Hg (1016.3 mb) [Sea level pressure: 1015.5 mb]
Winds:from the E (80 degrees) at 3 MPH (3 knots; 1.5 m/s)
Visibility:10 or more sm (16+ km)
Ceiling:at least 12,000 feet AGL
Clouds:sky clear below 12,000 feet AGL
Text:KHTS 182351Z 04005KT 10SM CLR 27/12 A3001 RMK AO2 SLP154 T02670122 10294 20267 55004
Temperature: 26.7°C ( 80°F)
Dewpoint: 12.2°C ( 54°F) [RH = 41%]
Pressure (altimeter):30.01 inches Hg (1016.3 mb) [Sea level pressure: 1015.4 mb]
Winds:from the NE (40 degrees) at 6 MPH (5 knots; 2.6 m/s)
Visibility:10 or more sm (16+ km)
Ceiling:at least 12,000 feet AGL
Clouds:sky clear below 12,000 feet AGL